Time;durP1;ratioP1;P1;durP2;ratioP2;P2;SDS_P1;SDS_P2;PMS_P1;PMS_P2;Temp;Humidity;BMP_temperature;BMP_pressure;BME280_temperature;BME280_humidity;BME280_pressure;Samples;Min_cycle;Max_cycle;Signal;HPM_P1;HPM_P2
2023/03/02 00:01:41;;;;;;;313.52;228.50;;;;;;;23.17;32.07;102025.16;5093215;28;20024;-41
2023/03/02 00:04:15;;;;;;;317.60;235.20;;;;;;;23.19;31.99;102022.59;5091778;28;20082;-46
2023/03/02 00:06:43;;;;;;;346.00;249.68;;;;;;;23.16;32.18;102020.78;5093227;28;20035;-46
2023/03/02 00:09:12;;;;;;;336.40;244.15;;;;;;;23.16;32.16;102032.97;5093173;28;20017;-46
2023/03/02 00:11:41;;;;;;;327.63;240.38;;;;;;;23.19;32.06;102028.72;5092415;28;20092;-48
2023/03/02 00:14:09;;;;;;;339.88;243.60;;;;;;;23.17;32.16;102022.53;5092076;28;20025;-43
2023/03/02 00:16:39;;;;;;;328.45;236.98;;;;;;;23.25;32.31;102022.81;5092973;28;20039;-41
2023/03/02 00:19:07;;;;;;;347.33;249.23;;;;;;;23.23;31.91;102013.16;5093041;28;20031;-43
2023/03/02 00:21:36;;;;;;;329.17;237.57;;;;;;;23.16;31.98;102015.56;5092705;28;20482;-41
2023/03/02 00:24:04;;;;;;;323.95;237.00;;;;;;;23.14;31.90;102014.63;5092918;28;20025;-43
2023/03/02 00:26:35;;;;;;;330.30;238.35;;;;;;;23.12;32.17;102011.06;5092740;28;20036;-42
2023/03/02 00:29:04;;;;;;;331.65;237.80;;;;;;;23.10;32.32;102007.50;5092885;28;20047;-42
2023/03/02 00:31:33;;;;;;;332.98;238.07;;;;;;;23.10;32.16;102014.44;5092689;28;20075;-42
2023/03/02 00:34:01;;;;;;;326.00;235.90;;;;;;;23.12;31.99;102018.91;5094314;28;20035;-43
2023/03/02 00:36:30;;;;;;;313.58;233.85;;;;;;;23.10;31.94;102014.44;5096911;28;20028;-46
2023/03/02 00:38:58;;;;;;;324.05;235.93;;;;;;;23.18;32.33;102018.22;5097089;28;20032;-44
2023/03/02 00:41:27;;;;;;;320.83;230.13;;;;;;;23.12;32.26;102018.00;5096911;28;20060;-50
2023/03/02 00:43:56;;;;;;;319.52;232.98;;;;;;;23.09;32.11;102015.28;5096818;28;20107;-44
2023/03/02 00:46:27;;;;;;;325.95;232.20;;;;;;;23.08;31.98;102022.25;5097298;28;20035;-42
2023/03/02 00:48:55;;;;;;;326.38;238.93;;;;;;;23.16;32.22;102012.94;5096624;28;20077;-43
2023/03/02 00:51:24;;;;;;;329.45;238.88;;;;;;;23.14;32.17;102012.00;5096517;28;20035;-48
2023/03/02 00:53:53;;;;;;;335.52;239.82;;;;;;;23.11;32.05;102018.84;5096126;28;20032;-49
2023/03/02 00:56:21;;;;;;;342.45;240.50;;;;;;;23.06;31.99;102018.69;5096515;28;20501;-44
2023/03/02 00:58:50;;;;;;;333.08;242.20;;;;;;;23.10;32.21;102011.81;5096375;28;20039;-45
2023/03/02 01:01:19;;;;;;;319.48;232.88;;;;;;;23.16;32.35;102012.94;5096621;28;20434;-44
2023/03/02 01:03:47;;;;;;;324.20;234.50;;;;;;;23.23;31.74;102010.53;5096300;28;20032;-41
2023/03/02 01:06:18;;;;;;;345.23;242.32;;;;;;;23.16;31.98;102009.41;5096420;28;20059;-41
2023/03/02 01:08:47;;;;;;;339.45;240.82;;;;;;;23.27;31.83;102012.41;5096492;28;20074;-47
2023/03/02 01:11:19;;;;;;;326.52;236.52;;;;;;;23.18;31.71;101999.88;5095851;28;20031;-46
2023/03/02 01:13:49;;;;;;;327.48;238.80;;;;;;;23.12;32.17;102007.53;5094165;28;20143;-43
2023/03/02 01:16:17;;;;;;;323.13;235.57;;;;;;;23.08;32.14;102006.53;5096230;28;20106;-47
2023/03/02 01:18:46;;;;;;;312.55;231.98;;;;;;;23.14;31.83;101988.44;5095955;28;20107;-44
2023/03/02 01:21:16;;;;;;;327.25;238.43;;;;;;;23.13;31.87;101989.28;5096047;28;20085;-42
2023/03/02 01:23:44;;;;;;;312.98;230.27;;;;;;;23.15;31.95;101992.84;5095898;28;20059;-41
2023/03/02 01:26:13;;;;;;;328.17;236.00;;;;;;;23.17;32.00;101998.09;5096066;28;20035;-47
2023/03/02 01:28:41;;;;;;;323.45;234.75;;;;;;;23.13;31.71;101991.91;5095862;28;20438;-43
2023/03/02 01:31:10;;;;;;;333.02;236.70;;;;;;;23.08;32.29;101990.84;5095779;28;20032;-45
2023/03/02 01:33:39;;;;;;;323.88;236.88;;;;;;;23.04;32.01;101995.09;5095689;28;20059;-43
2023/03/02 01:36:08;;;;;;;336.65;242.43;;;;;;;23.03;32.05;101993.31;5095854;28;20035;-41
2023/03/02 01:38:36;;;;;;;323.45;237.00;;;;;;;23.16;32.12;101996.31;5096257;28;20032;-43
2023/03/02 01:41:05;;;;;;;328.25;235.35;;;;;;;23.11;31.84;102004.03;5095257;28;20066;-49
2023/03/02 01:43:33;;;;;;;325.27;237.73;;;;;;;23.15;31.69;101997.16;5095779;28;20032;-44
2023/03/02 01:46:07;;;;;;;330.95;237.30;;;;;;;23.13;31.90;101998.84;5095160;28;20028;-44
2023/03/02 01:48:46;;;;;;;319.02;232.15;;;;;;;23.10;31.93;102002.25;5095442;28;20058;-42
2023/03/02 01:51:18;;;;;;;325.42;235.00;;;;;;;23.06;31.85;102005.59;5095421;28;20028;-44
2023/03/02 01:53:47;;;;;;;325.48;234.50;;;;;;;22.98;32.35;102005.34;5095005;28;20031;-43
2023/03/02 01:56:19;;;;;;;332.73;234.55;;;;;;;23.01;31.78;101999.31;5094968;28;20527;-44
2023/03/02 01:58:51;;;;;;;322.83;235.55;;;;;;;22.96;31.87;102008.75;5094130;28;20039;-44
2023/03/02 02:01:19;;;;;;;321.85;232.80;;;;;;;22.99;32.32;102001.88;5095164;28;20062;-43
2023/03/02 02:03:50;;;;;;;315.27;230.43;;;;;;;23.01;32.06;101992.38;5093991;28;20046;-48
2023/03/02 02:06:26;;;;;;;327.15;233.57;;;;;;;22.95;31.94;101986.03;5094343;28;20105;-43
2023/03/02 02:08:56;;;;;;;329.10;237.13;;;;;;;22.90;32.45;101985.91;5095155;28;20451;-40
2023/03/02 02:11:25;;;;;;;334.05;238.73;;;;;;;22.94;32.14;101989.50;5095047;28;20466;-42
2023/03/02 02:13:58;;;;;;;325.27;237.02;;;;;;;22.96;32.22;101969.50;5095276;28;20442;-43
2023/03/02 02:16:27;;;;;;;322.15;232.07;;;;;;;22.98;32.03;101971.31;5093894;28;20032;-42
2023/03/02 02:18:56;;;;;;;316.00;230.07;;;;;;;22.97;31.91;101979.13;5093535;28;20439;-43
2023/03/02 02:21:26;;;;;;;311.02;228.35;;;;;;;22.98;31.75;101975.69;5094919;28;20435;-43
2023/03/02 02:24:24;;;;;;;336.35;231.70;;;;;;;23.08;32.04;101969.03;5094012;28;20375;-41
2023/03/02 02:26:54;;;;;;;324.90;234.00;;;;;;;23.00;31.95;101960.94;5091834;28;20442;-43
2023/03/02 02:29:28;;;;;;;337.15;240.52;;;;;;;22.90;32.56;101964.97;5093579;28;20039;-45
2023/03/02 02:32:00;;;;;;;331.10;237.60;;;;;;;22.92;32.05;101955.41;5093647;28;20392;-45
2023/03/02 02:34:49;;;;;;;324.77;234.63;;;;;;;23.00;31.94;101959.19;5094549;28;20438;-40
2023/03/02 02:37:24;;;;;;;323.73;231.55;;;;;;;22.97;31.87;101951.22;5094609;28;20477;-43
2023/03/02 02:39:52;;;;;;;321.95;239.20;;;;;;;22.98;31.79;101957.38;5094511;28;20077;-43
2023/03/02 02:42:24;;;;;;;327.02;230.93;;;;;;;22.94;32.14;101958.97;5093426;28;20047;-43
2023/03/02 02:44:55;;;;;;;334.08;234.98;;;;;;;22.89;32.01;101961.44;5093410;28;20031;-45
2023/03/02 02:47:24;;;;;;;328.90;236.27;;;;;;;23.00;31.74;101951.34;5093155;28;20610;-44
2023/03/02 02:49:55;;;;;;;327.17;238.63;;;;;;;22.88;31.98;101951.81;5094276;28;20078;-46
2023/03/02 02:52:26;;;;;;;325.58;233.18;;;;;;;22.90;31.81;101944.91;5092859;28;20108;-43
2023/03/02 02:54:57;;;;;;;319.85;234.38;;;;;;;22.89;31.84;101948.38;5093065;28;20051;-49
2023/03/02 02:57:28;;;;;;;315.80;230.30;;;;;;;22.87;31.99;101938.69;5093351;28;20087;-43
2023/03/02 03:00:00;;;;;;;320.27;229.02;;;;;;;22.88;32.17;101943.09;5092844;28;20169;-45
2023/03/02 03:02:30;;;;;;;308.02;227.13;;;;;;;22.87;31.86;101946.53;5094044;28;20080;-43
2023/03/02 03:05:02;;;;;;;318.35;232.27;;;;;;;22.92;32.13;101939.72;5092761;28;20032;-40
2023/03/02 03:07:32;;;;;;;322.23;234.93;;;;;;;22.96;31.96;101938.09;5094281;28;20039;-48
2023/03/02 03:10:16;;;;;;;311.83;226.52;;;;;;;22.88;31.99;101940.47;5093980;28;20071;-40
2023/03/02 03:12:44;;;;;;;318.60;229.82;;;;;;;22.79;31.74;101922.75;5093572;28;20055;-48
2023/03/02 03:15:14;;;;;;;319.60;229.88;;;;;;;22.84;32.03;101938.59;5093874;28;20030;-45
2023/03/02 03:17:47;;;;;;;317.02;230.45;;;;;;;22.79;32.04;101938.44;5093989;28;20023;-45
2023/03/02 03:20:18;;;;;;;314.15;224.93;;;;;;;22.74;31.72;101942.63;5093649;28;20035;-41
2023/03/02 03:22:46;;;;;;;309.92;231.60;;;;;;;22.82;32.08;101930.69;5093799;28;20024;-44
2023/03/02 03:25:15;;;;;;;314.42;226.77;;;;;;;22.69;32.06;101924.16;5093281;28;20492;-44
2023/03/02 03:27:44;;;;;;;306.83;223.93;;;;;;;22.73;32.17;101938.22;5093824;28;20499;-42
2023/03/02 03:30:14;;;;;;;308.48;223.25;;;;;;;22.77;32.14;101933.13;5093699;28;20024;-40
2023/03/02 03:32:42;;;;;;;311.90;223.77;;;;;;;22.75;31.83;101928.69;5093346;28;20036;-41
2023/03/02 03:35:11;;;;;;;310.65;223.43;;;;;;;22.80;32.01;101932.38;5093419;28;20070;-40
2023/03/02 03:37:42;;;;;;;326.35;232.43;;;;;;;22.82;32.11;101938.53;5093707;28;20031;-48
2023/03/02 03:40:11;;;;;;;318.35;230.30;;;;;;;22.82;32.08;101935.03;5091961;28;20031;-41
2023/03/02 03:42:40;;;;;;;314.13;229.93;;;;;;;22.78;31.81;101934.03;5093599;28;20028;-45
2023/03/02 03:45:09;;;;;;;307.45;223.52;;;;;;;22.80;32.19;101935.00;5093450;28;20066;-43
2023/03/02 03:47:37;;;;;;;310.88;225.80;;;;;;;22.74;31.76;101935.69;5093515;28;20031;-42
2023/03/02 03:50:06;;;;;;;313.30;225.93;;;;;;;22.77;32.10;101934.88;5093350;28;20370;-43
2023/03/02 03:52:35;;;;;;;305.40;228.13;;;;;;;22.84;31.97;101934.22;5093353;28;20042;-43
2023/03/02 03:55:04;;;;;;;322.73;233.70;;;;;;;22.85;32.04;101924.66;5093314;28;20496;-44
2023/03/02 03:57:33;;;;;;;325.52;234.00;;;;;;;22.86;31.89;101932.56;5093321;28;20028;-43
2023/03/02 04:00:04;;;;;;;313.70;226.80;;;;;;;22.84;31.64;101931.59;5093063;28;20440;-48
2023/03/02 04:02:33;;;;;;;315.33;232.48;;;;;;;22.73;31.74;101915.59;5091861;28;20461;-41
2023/03/02 04:05:05;;;;;;;332.55;235.65;;;;;;;22.79;32.17;101925.34;5092847;28;20028;-41
2023/03/02 04:07:34;;;;;;;318.92;229.23;;;;;;;22.76;31.94;101923.50;5093225;28;20060;-44
2023/03/02 04:10:03;;;;;;;333.02;233.57;;;;;;;22.79;31.75;101922.75;5093069;28;20429;-44
2023/03/02 04:12:33;;;;;;;319.98;227.55;;;;;;;22.82;31.70;101919.31;5092605;28;20497;-44
2023/03/02 04:15:02;;;;;;;336.98;234.88;;;;;;;22.88;31.91;101919.53;5093552;28;20119;-45
2023/03/02 04:17:31;;;;;;;323.73;232.27;;;;;;;22.75;31.71;101924.34;5093483;28;20082;-45
2023/03/02 04:19:59;;;;;;;322.77;228.98;;;;;;;22.73;32.26;101919.91;5093057;28;20039;-43
2023/03/02 04:22:28;;;;;;;324.73;231.43;;;;;;;22.72;32.20;101926.88;5093138;28;20024;-43
2023/03/02 04:24:56;;;;;;;310.17;225.70;;;;;;;22.68;31.81;101937.16;5092914;28;20032;-43
2023/03/02 04:27:25;;;;;;;323.88;233.40;;;;;;;22.60;32.18;101934.28;5093060;28;20020;-41
2023/03/02 04:29:53;;;;;;;329.38;235.85;;;;;;;22.60;32.45;101939.53;5093134;28;20090;-44
2023/03/02 04:32:22;;;;;;;322.23;232.25;;;;;;;22.61;31.91;101942.22;5092679;28;20040;-41
2023/03/02 04:34:51;;;;;;;320.95;232.77;;;;;;;22.62;32.30;101950.94;5093224;28;20458;-44
2023/03/02 04:37:19;;;;;;;312.13;226.18;;;;;;;22.73;31.98;101951.31;5091623;28;20035;-45
2023/03/02 04:39:50;;;;;;;318.33;233.38;;;;;;;22.73;32.15;101954.81;5092301;28;20101;-41
2023/03/02 04:42:19;;;;;;;310.50;222.55;;;;;;;22.72;31.96;101955.66;5092835;28;20489;-43
2023/03/02 04:44:48;;;;;;;321.63;228.70;;;;;;;22.71;31.87;101958.19;5092863;28;20032;-47
2023/03/02 04:47:17;;;;;;;317.63;232.65;;;;;;;22.68;32.11;101960.72;5092923;28;20055;-44
2023/03/02 04:49:45;;;;;;;331.13;236.00;;;;;;;22.65;32.34;101956.28;5092720;28;20481;-47
2023/03/02 04:52:14;;;;;;;323.40;237.25;;;;;;;22.58;32.00;101959.53;5092496;28;20067;-40
2023/03/02 04:54:43;;;;;;;325.50;235.85;;;;;;;22.54;31.89;101961.13;5074484;28;20059;-41
2023/03/02 04:57:11;;;;;;;315.08;230.27;;;;;;;22.55;32.24;101962.91;5091412;28;20503;-43
2023/03/02 04:59:40;;;;;;;322.70;233.15;;;;;;;22.53;32.15;101961.09;5092349;28;20025;-45
2023/03/02 05:02:08;;;;;;;327.73;231.88;;;;;;;22.64;32.00;101962.34;5092569;28;20433;-45
2023/03/02 05:04:39;;;;;;;315.23;229.27;;;;;;;22.64;32.02;101961.47;5092481;28;20032;-42
2023/03/02 05:07:07;;;;;;;316.80;228.25;;;;;;;22.60;31.85;101966.59;5092615;28;20032;-40
2023/03/02 05:09:36;;;;;;;330.17;234.88;;;;;;;22.52;32.32;101970.63;5092544;28;20031;-45
2023/03/02 05:12:05;;;;;;;321.23;230.63;;;;;;;22.54;32.06;101966.34;5073969;28;20040;-41
2023/03/02 05:14:34;;;;;;;316.42;232.27;;;;;;;22.55;32.30;101967.25;5092664;28;20389;-43
2023/03/02 05:17:02;;;;;;;342.52;244.20;;;;;;;22.55;32.42;101962.91;5092345;28;20031;-42
2023/03/02 05:19:31;;;;;;;329.80;232.63;;;;;;;22.51;32.32;101953.16;5092697;28;20055;-44
2023/03/02 05:22:00;;;;;;;326.83;233.63;;;;;;;22.59;32.25;101959.56;5096102;28;20030;-43
2023/03/02 05:24:28;;;;;;;324.33;236.60;;;;;;;22.61;31.80;101964.84;5096021;28;20493;-43
2023/03/02 05:26:57;;;;;;;323.13;236.48;;;;;;;22.51;32.25;101955.78;5095891;28;20537;-43
2023/03/02 05:29:25;;;;;;;330.25;235.95;;;;;;;22.48;32.07;101954.78;5095837;28;20059;-43
2023/03/02 05:31:53;;;;;;;314.10;230.52;;;;;;;22.57;32.02;101961.25;5095763;28;20126;-41
2023/03/02 05:34:22;;;;;;;333.33;234.93;;;;;;;22.57;32.37;101958.63;5095845;28;20465;-41
2023/03/02 05:36:50;;;;;;;324.70;233.55;;;;;;;22.52;32.09;101952.34;5096102;28;20393;-41
2023/03/02 05:39:19;;;;;;;331.60;234.27;;;;;;;22.61;32.17;101957.91;5095536;28;20070;-41
2023/03/02 05:41:47;;;;;;;320.10;232.43;;;;;;;22.64;31.65;101956.22;5095675;28;20456;-43
2023/03/02 05:44:16;;;;;;;324.40;237.73;;;;;;;22.60;31.75;101955.22;5096034;28;20437;-41
2023/03/02 05:46:45;;;;;;;325.38;236.57;;;;;;;22.49;32.05;101962.72;5095541;28;20047;-43
2023/03/02 05:49:13;;;;;;;320.27;231.60;;;;;;;22.52;31.95;101956.69;5095710;28;20024;-42
2023/03/02 05:51:42;;;;;;;320.67;232.27;;;;;;;22.57;31.87;101958.63;5095204;28;20089;-44
2023/03/02 05:54:10;;;;;;;327.75;235.18;;;;;;;22.53;32.27;101964.56;5095616;28;20531;-43
2023/03/02 05:56:39;;;;;;;320.55;234.93;;;;;;;22.59;32.20;101970.03;5142991;22;20050;-49
2023/03/02 05:59:07;;;;;;;322.27;235.32;;;;;;;22.55;31.77;101962.91;5034767;28;20038;-45
2023/03/02 06:01:35;;;;;;;316.30;233.93;;;;;;;22.56;31.93;101964.69;5034957;28;20032;-43
2023/03/02 06:04:04;;;;;;;335.98;242.25;;;;;;;22.52;32.11;101962.78;5035255;28;20127;-44
2023/03/02 06:06:33;;;;;;;328.38;232.88;;;;;;;22.47;32.03;101974.84;5035005;28;20022;-46
2023/03/02 06:09:01;;;;;;;326.75;236.75;;;;;;;22.45;32.28;101972.16;5035224;28;20056;-48
2023/03/02 06:11:30;;;;;;;325.05;239.02;;;;;;;22.44;32.38;101972.97;5035227;28;20548;-45
2023/03/02 06:13:58;;;;;;;324.27;232.38;;;;;;;22.42;32.45;101972.03;5035050;28;20095;-42
2023/03/02 06:16:27;;;;;;;319.38;233.52;;;;;;;22.42;32.14;101973.78;5035058;28;20030;-45
2023/03/02 06:18:56;;;;;;;310.55;217.40;;;;;;;22.42;31.93;101974.66;5034480;28;20032;-45
2023/03/02 06:21:24;;;;;;;306.20;216.00;;;;;;;22.30;32.06;101972.47;5034802;28;20036;-43
2023/03/02 06:23:53;;;;;;;315.33;222.35;;;;;;;22.36;31.99;101979.66;5034906;28;20030;-46
2023/03/02 06:26:22;;;;;;;315.20;227.85;;;;;;;22.42;31.60;101976.38;5035044;28;20048;-42
2023/03/02 06:28:50;;;;;;;309.95;219.07;;;;;;;22.40;32.03;101981.53;5034589;28;20026;-42
2023/03/02 06:31:19;;;;;;;314.30;224.70;;;;;;;22.42;31.96;101976.38;5034808;28;20029;-42
2023/03/02 06:33:48;;;;;;;308.23;219.48;;;;;;;22.40;31.67;101978.94;5034911;28;20525;-44
2023/03/02 06:36:16;;;;;;;316.13;220.45;;;;;;;22.42;31.45;101979.00;5050073;28;20071;-46
2023/03/02 06:38:45;;;;;;;301.58;216.55;;;;;;;22.44;31.90;101983.44;5034118;28;20036;-47
2023/03/02 06:41:13;;;;;;;310.05;221.02;;;;;;;22.34;31.73;101983.94;5034770;28;20096;-46
2023/03/02 06:43:42;;;;;;;301.17;216.18;;;;;;;22.31;31.96;101991.66;5034458;28;20474;-42
2023/03/02 06:46:11;;;;;;;291.70;209.73;;;;;;;22.33;31.75;101991.72;5034435;28;20034;-50
2023/03/02 06:48:39;;;;;;;293.20;207.32;;;;;;;22.29;31.85;101991.59;5034282;28;20104;-46
2023/03/02 06:51:08;;;;;;;277.20;201.15;;;;;;;22.09;31.80;101953.41;5033839;28;20446;-42
2023/03/02 06:53:36;;;;;;;299.42;211.23;;;;;;;22.43;31.54;101996.47;5034263;28;20061;-49
2023/03/02 06:56:06;;;;;;;295.27;205.82;;;;;;;22.37;31.66;101986.66;5033998;28;20037;-45
2023/03/02 06:58:34;;;;;;;285.10;200.48;;;;;;;22.31;31.70;101989.94;5034321;28;20056;-49
2023/03/02 07:01:03;;;;;;;277.35;197.68;;;;;;;22.38;31.62;101984.91;5034271;28;20064;-44
2023/03/02 07:03:32;;;;;;;257.00;181.48;;;;;;;22.31;31.71;101995.19;5033760;28;20371;-51
2023/03/02 07:06:00;;;;;;;264.35;183.50;;;;;;;22.34;31.48;101990.91;5033712;28;20048;-49
2023/03/02 07:08:29;;;;;;;256.95;179.80;;;;;;;22.19;31.54;101984.25;5033984;28;20071;-43
2023/03/02 07:10:58;;;;;;;259.50;183.02;;;;;;;22.22;32.03;101994.81;5049068;28;20072;-51
2023/03/02 07:13:28;;;;;;;252.88;175.80;;;;;;;22.33;31.60;101999.56;5033919;28;20051;-45
2023/03/02 07:15:56;;;;;;;258.13;178.32;;;;;;;22.37;31.63;101998.81;5033988;28;20044;-47
2023/03/02 07:18:25;;;;;;;248.13;173.65;;;;;;;22.31;31.54;101989.03;5033795;28;20049;-43
2023/03/02 07:20:53;;;;;;;239.93;171.00;;;;;;;22.29;31.74;102002.06;5033830;28;20478;-42
2023/03/02 07:23:22;;;;;;;237.88;169.15;;;;;;;22.34;31.58;102002.22;5033720;28;20112;-42
2023/03/02 07:25:51;;;;;;;226.18;157.85;;;;;;;22.30;31.52;102006.47;5049107;28;20026;-43
2023/03/02 07:28:20;;;;;;;230.80;158.05;;;;;;;22.31;31.33;102000.41;5033491;28;20509;-42
2023/03/02 07:30:49;;;;;;;219.95;152.75;;;;;;;22.29;31.39;102009.00;5033550;28;20041;-42
2023/03/02 07:33:18;;;;;;;230.90;160.52;;;;;;;22.26;31.71;102009.78;5033437;28;20120;-43
2023/03/02 07:35:46;;;;;;;231.63;158.27;;;;;;;22.27;31.70;102021.13;5033428;28;20104;-48
2023/03/02 07:38:15;;;;;;;233.55;158.88;;;;;;;22.36;31.83;102015.34;5033574;28;20033;-44
2023/03/02 07:40:44;;;;;;;224.80;156.75;;;;;;;22.32;31.83;102011.72;5033549;28;20057;-50
2023/03/02 07:43:13;;;;;;;234.35;159.82;;;;;;;22.33;31.73;102021.34;5031860;28;20107;-42
2023/03/02 07:45:41;;;;;;;227.00;158.18;;;;;;;22.32;31.58;102011.72;5033512;28;20119;-45
2023/03/02 07:48:10;;;;;;;221.32;154.32;;;;;;;22.40;31.99;102022.47;5033412;28;20382;-46
2023/03/02 07:50:38;;;;;;;212.45;149.60;;;;;;;22.44;31.82;102029.63;5032976;28;20064;-44
2023/03/02 07:53:06;;;;;;;224.25;155.45;;;;;;;22.44;31.43;102033.13;5033044;28;20025;-50
2023/03/02 07:55:35;;;;;;;221.30;149.80;;;;;;;22.44;31.76;102040.09;5033324;28;20025;-46
2023/03/02 07:58:04;;;;;;;217.93;146.93;;;;;;;22.44;31.64;102035.72;5033129;28;20073;-47
2023/03/02 08:00:32;;;;;;;219.32;145.68;;;;;;;22.51;31.75;102039.47;5033271;28;20080;-44
2023/03/02 08:03:01;;;;;;;203.82;142.32;;;;;;;22.63;31.48;102046.00;5032917;28;20031;-46
2023/03/02 08:05:30;;;;;;;198.93;136.57;;;;;;;22.61;31.49;102049.44;5033248;28;20083;-47
2023/03/02 08:07:59;;;;;;;194.75;131.13;;;;;;;22.78;30.91;102054.38;5033095;28;20481;-45
2023/03/02 08:10:27;;;;;;;185.25;128.75;;;;;;;22.81;30.90;102054.50;5033122;28;20033;-45
2023/03/02 08:12:56;;;;;;;182.82;125.20;;;;;;;22.76;31.18;102053.44;5033181;28;20088;-44
2023/03/02 08:15:24;;;;;;;178.32;119.78;;;;;;;22.75;30.96;102056.88;5032662;28;20032;-43
2023/03/02 08:17:52;;;;;;;178.38;119.00;;;;;;;22.78;31.06;102059.63;5033036;28;20029;-42
2023/03/02 08:20:21;;;;;;;170.50;117.00;;;;;;;22.83;30.95;102057.16;5032883;28;20049;-43
2023/03/02 08:22:50;;;;;;;165.80;111.88;;;;;;;22.86;30.92;102063.38;5032757;28;20422;-42
2023/03/02 08:25:18;;;;;;;166.35;109.85;;;;;;;22.87;30.55;102067.78;5032616;28;20025;-45
2023/03/02 08:27:46;;;;;;;149.40;104.70;;;;;;;22.99;30.53;102069.06;5032462;28;20104;-46
2023/03/02 08:30:15;;;;;;;153.90;105.60;;;;;;;22.99;30.53;102067.31;5033134;28;20466;-46
2023/03/02 08:32:44;;;;;;;152.90;106.50;;;;;;;23.08;30.18;102066.75;5032560;28;20376;-43
2023/03/02 08:35:12;;;;;;;147.85;102.07;;;;;;;23.13;30.49;102070.41;5032854;28;20112;-46
2023/03/02 08:37:41;;;;;;;142.63;98.32;;;;;;;23.16;30.38;102061.75;5032807;28;20109;-42
2023/03/02 08:40:10;;;;;;;145.80;96.18;;;;;;;23.23;30.15;102068.13;5032798;28;20033;-45
2023/03/02 08:42:39;;;;;;;152.95;101.25;;;;;;;23.21;30.37;102071.59;5048087;28;20486;-43
2023/03/02 08:45:07;;;;;;;141.57;96.53;;;;;;;23.19;30.59;102070.59;5019649;28;20042;-48
2023/03/02 08:47:34;;;;;;;144.25;94.05;;;;;;;23.30;30.35;102076.25;5009865;28;20033;-44
2023/03/02 08:50:02;;;;;;;138.75;92.38;;;;;;;23.30;29.97;102077.97;5010431;28;20032;-44
2023/03/02 08:52:32;;;;;;;131.45;90.93;;;;;;;23.36;29.94;102078.16;5011418;28;20047;-45
2023/03/02 08:55:00;;;;;;;133.35;90.15;;;;;;;23.37;29.85;102074.72;5012266;28;20026;-44
2023/03/02 08:57:28;;;;;;;127.25;85.25;;;;;;;23.37;30.12;102074.72;5014503;28;20058;-43
2023/03/02 08:59:57;;;;;;;130.18;88.15;;;;;;;23.37;29.99;102074.72;5011903;28;20030;-42
2023/03/02 09:02:24;;;;;;;116.22;82.45;;;;;;;23.38;30.38;102070.38;5015137;28;20025;-45
2023/03/02 09:04:52;;;;;;;114.35;81.72;;;;;;;23.44;30.23;102079.31;5015402;28;20532;-45
2023/03/02 09:07:19;;;;;;;125.25;82.10;;;;;;;23.45;30.11;102081.09;5014849;28;20052;-42
2023/03/02 09:09:46;;;;;;;125.38;82.22;;;;;;;23.44;30.14;102084.56;5013956;28;20116;-44
2023/03/02 09:12:14;;;;;;;119.50;81.22;;;;;;;23.50;29.85;102086.50;5014634;28;20030;-42
2023/03/02 09:14:42;;;;;;;121.68;81.18;;;;;;;23.45;30.29;102090.69;5014882;28;20475;-43
2023/03/02 09:17:11;;;;;;;121.47;82.22;;;;;;;23.51;29.99;102089.16;5017782;28;20491;-43
2023/03/02 09:19:40;;;;;;;118.68;80.93;;;;;;;23.50;29.83;102089.97;5013656;28;20026;-45
2023/03/02 09:22:09;;;;;;;125.18;83.38;;;;;;;23.47;29.88;102089.00;5013067;28;20033;-43
2023/03/02 09:24:36;;;;;;;122.40;82.95;;;;;;;23.51;30.10;102094.38;5014613;28;20108;-44
2023/03/02 09:27:04;;;;;;;110.38;78.25;;;;;;;23.59;30.26;102092.00;5014782;28;20025;-45
2023/03/02 09:29:31;;;;;;;116.30;79.60;;;;;;;23.63;29.86;102082.56;5011461;28;20487;-42
2023/03/02 09:32:00;;;;;;;118.60;79.63;;;;;;;23.66;30.07;102085.28;5014297;28;20523;-45
2023/03/02 09:34:28;;;;;;;115.93;76.45;;;;;;;23.72;29.75;102080.22;5014512;28;20037;-48
2023/03/02 09:36:57;;;;;;;121.32;82.43;;;;;;;23.70;29.55;102084.50;5015142;28;20022;-45
2023/03/02 09:39:24;;;;;;;118.90;77.70;;;;;;;23.71;30.13;102086.28;5013413;28;20026;-44
2023/03/02 09:42:02;;;;;;;114.30;78.65;;;;;;;23.71;30.00;102083.66;5013996;28;20054;-45
2023/03/02 09:44:48;;;;;;;114.53;75.85;;;;;;;23.75;29.63;102082.94;5013334;28;20036;-43
2023/03/02 09:47:44;;;;;;;122.88;81.55;;;;;;;23.80;29.89;102081.34;5012878;28;20033;-46
2023/03/02 09:50:15;;;;;;;121.40;79.90;;;;;;;23.83;29.60;102081.44;5009962;28;20037;-42
2023/03/02 09:53:09;;;;;;;118.07;80.00;;;;;;;23.79;29.89;102081.28;5014243;28;20034;-47
2023/03/02 09:55:37;;;;;;;117.20;77.28;;;;;;;23.81;29.55;102087.47;5001777;28;20037;-43
2023/03/02 09:58:08;;;;;;;112.70;76.75;;;;;;;23.83;29.43;102077.94;5013489;28;20112;-45
2023/03/02 10:00:39;;;;;;;109.43;75.95;;;;;;;23.94;29.67;102080.88;5014337;28;20084;-46
2023/03/02 10:03:09;;;;;;;122.00;80.15;;;;;;;23.93;29.54;102076.47;5011897;28;20062;-43
2023/03/02 10:05:42;;;;;;;112.97;77.47;;;;;;;23.96;29.40;102081.84;5013294;28;20369;-42
2023/03/02 10:08:15;;;;;;;120.75;77.15;;;;;;;23.94;29.57;102073.91;5012889;28;20088;-45
2023/03/02 10:11:06;;;;;;;121.13;81.25;;;;;;;23.97;29.61;102073.16;5012004;28;20030;-43
2023/03/02 10:13:56;;;;;;;116.95;79.47;;;;;;;24.04;29.56;102071.63;5012142;28;20068;-45
2023/03/02 10:16:44;;;;;;;123.35;80.10;;;;;;;24.06;29.47;102065.56;5013301;28;20080;-46
2023/03/02 10:19:20;;;;;;;115.53;76.28;;;;;;;24.08;29.67;102070.84;5012250;28;20084;-43
2023/03/02 10:21:54;;;;;;;120.78;80.07;;;;;;;24.16;29.25;102071.09;5011861;28;20049;-44
2023/03/02 10:24:46;;;;;;;115.90;78.55;;;;;;;24.12;29.47;102060.50;5017816;28;20468;-47
2023/03/02 10:27:19;;;;;;;117.88;80.50;;;;;;;24.09;29.26;102063.03;5010798;28;20083;-43
2023/03/02 10:30:07;;;;;;;114.25;76.85;;;;;;;24.19;29.36;102060.69;5011224;28;20025;-44
2023/03/02 10:32:41;;;;;;;118.03;79.97;;;;;;;24.18;29.33;102064.13;5012938;28;20060;-45
2023/03/02 10:35:18;;;;;;;119.55;81.32;;;;;;;24.11;29.48;102048.25;5014245;28;20022;-44
2023/03/02 10:37:46;;;;;;;128.15;83.78;;;;;;;24.17;29.45;102063.25;5012863;28;20104;-47
2023/03/02 10:40:32;;;;;;;113.45;79.22;;;;;;;24.27;29.59;102062.69;5012990;28;20029;-48
2023/03/02 10:42:59;;;;;;;;;;;;;;;24.34;29.03;102058.50;5013180;28;20022;-47
2023/03/02 10:45:27;;;;;;;119.43;80.95;;;;;;;24.37;29.02;102058.59;5011564;28;19913;-47
2023/03/02 10:48:08;;;;;;;118.63;80.85;;;;;;;24.35;29.31;102060.28;5012440;28;20030;-44
2023/03/02 10:50:37;;;;;;;113.15;76.38;;;;;;;24.38;28.87;102057.75;5012694;28;20026;-47
2023/03/02 10:53:08;;;;;;;117.80;80.57;;;;;;;24.35;28.90;102048.91;5011898;28;20038;-49
2023/03/02 10:55:35;;;;;;;119.95;80.40;;;;;;;24.36;29.25;102056.81;5012291;28;20037;-46
2023/03/02 10:58:04;;;;;;;122.57;79.68;;;;;;;24.38;28.91;102059.50;5018746;28;20515;-47
2023/03/02 11:00:33;;;;;;;121.00;82.82;;;;;;;24.38;28.98;102057.75;5012425;28;20029;-49
2023/03/02 11:03:05;;;;;;;125.55;83.60;;;;;;;24.39;29.23;102053.41;5011554;28;20392;-47
2023/03/02 11:05:43;;;;;;;120.07;82.53;;;;;;;24.40;28.92;102049.94;5012356;28;20076;-43
2023/03/02 11:08:22;;;;;;;123.03;81.88;;;;;;;24.40;29.11;102052.56;5012178;28;20029;-51
2023/03/02 11:10:55;;;;;;;122.63;82.07;;;;;;;24.45;29.08;102047.44;5012423;28;20049;-48